Time;durP1;ratioP1;P1;durP2;ratioP2;P2;SDS_P1;SDS_P2;PMS_P1;PMS_P2;Temp;Humidity;BMP_temperature;BMP_pressure;BME280_temperature;BME280_humidity;BME280_pressure;Samples;Min_cycle;Max_cycle;Signal;HPM_P1;HPM_P2
2022/07/21 00:01:16;;;;;;;4.63;4.20;;;25.90;91.00;;;;;;6176567;28;88972;-65
2022/07/21 00:04:19;;;;;;;4.43;4.03;;;25.80;90.90;;;;;;6170877;28;88531;-65
2022/07/21 00:07:21;;;;;;;5.10;4.40;;;25.90;91.00;;;;;;6173572;28;89112;-65
2022/07/21 00:10:25;;;;;;;5.00;4.40;;;25.90;91.00;;;;;;6175381;28;89203;-65
2022/07/21 00:13:27;;;;;;;5.53;4.13;;;25.90;91.00;;;;;;6177945;28;90009;-65
2022/07/21 00:16:30;;;;;;;5.25;4.20;;;25.80;90.90;;;;;;6177677;28;89116;-65
2022/07/21 00:19:32;;;;;;;6.15;4.95;;;25.80;91.00;;;;;;6159278;28;89093;-65
2022/07/21 00:22:35;;;;;;;5.63;4.43;;;25.90;91.00;;;;;;6181897;28;89253;-65
2022/07/21 00:25:37;;;;;;;4.47;4.07;;;25.90;91.00;;;;;;6169316;28;89022;-65
2022/07/21 00:28:39;;;;;;;5.63;4.30;;;25.90;91.00;;;;;;6179005;28;87955;-65
2022/07/21 00:31:42;;;;;;;4.40;4.00;;;25.80;91.00;;;;;;6171423;28;87979;-65
2022/07/21 00:34:44;;;;;;;4.43;4.03;;;25.80;91.00;;;;;;6179829;28;88593;-65
2022/07/21 00:37:46;;;;;;;6.10;4.28;;;25.80;91.00;;;;;;6182364;28;89095;-65
2022/07/21 00:40:48;;;;;;;4.90;4.20;;;25.80;91.00;;;;;;6175375;28;89555;-65
2022/07/21 00:43:51;;;;;;;4.80;4.30;;;25.90;91.00;;;;;;6169455;28;90000;-65
2022/07/21 00:46:55;;;;;;;4.95;4.10;;;25.80;91.00;;;;;;6182908;28;87953;-65
2022/07/21 00:49:59;;;;;;;4.18;3.78;;;25.90;91.00;;;;;;6181138;28;89106;-65
2022/07/21 00:53:01;;;;;;;5.13;4.10;;;25.80;91.00;;;;;;6172153;28;89093;-65
2022/07/21 00:56:04;;;;;;;4.75;4.10;;;25.90;91.00;;;;;;6166393;28;89081;-65
2022/07/21 00:59:06;;;;;;;4.68;4.10;;;25.80;91.00;;;;;;6177526;28;89249;-65
2022/07/21 01:02:10;;;;;;;5.03;4.07;;;25.80;91.00;;;;;;6165948;28;88146;-65
2022/07/21 01:05:14;;;;;;;4.72;4.22;;;25.80;91.00;;;;;;6177997;28;88673;-65
2022/07/21 01:08:16;;;;;;;4.63;4.22;;;25.80;91.00;;;;;;6172883;28;89042;-65
2022/07/21 01:11:21;;;;;;;4.60;4.20;;;25.90;91.00;;;;;;6169894;28;89053;-65
2022/07/21 01:14:23;;;;;;;4.28;3.97;;;25.80;90.90;;;;;;6160264;28;88834;-65
2022/07/21 01:17:27;;;;;;;4.43;4.03;;;25.90;91.00;;;;;;6165673;28;88005;-65
2022/07/21 01:20:34;;;;;;;4.68;4.20;;;25.80;91.00;;;;;;6177907;28;89966;-65
2022/07/21 01:23:37;;;;;;;4.28;3.88;;;25.80;90.90;;;;;;6163943;28;89130;-65
2022/07/21 01:26:43;;;;;;;4.00;3.70;;;25.80;91.00;;;;;;6169990;28;89104;-65
2022/07/21 01:29:44;;;;;;;4.90;4.40;;;25.80;91.00;;;;;;6182951;28;89411;-64
2022/07/21 01:32:47;;;;;;;5.15;4.63;;;25.80;91.00;;;;;;6167601;28;89025;-65
2022/07/21 01:35:49;;;;;;;5.00;4.50;;;25.80;91.00;;;;;;6170992;28;88313;-64
2022/07/21 01:42:12;;;;;;;4.70;4.30;;;25.90;91.00;;;;;;6170161;28;87367;-65
2022/07/21 01:45:14;;;;;;;4.82;4.43;;;25.90;91.00;;;;;;6166391;28;90091;-65
2022/07/21 01:48:16;;;;;;;4.72;4.32;;;25.80;91.00;;;;;;6171413;28;89111;-65
2022/07/21 01:51:18;;;;;;;4.78;4.22;;;25.90;91.10;;;;;;6168711;28;89343;-65
2022/07/21 01:54:22;;;;;;;4.95;4.55;;;25.90;91.10;;;;;;6171210;28;89048;-65
2022/07/21 01:57:24;;;;;;;5.00;4.50;;;25.80;91.10;;;;;;6160782;28;88093;-65
2022/07/21 02:00:26;;;;;;;5.68;4.88;;;25.80;91.10;;;;;;6164890;28;89112;-65
2022/07/21 02:03:28;;;;;;;4.85;4.35;;;25.80;91.20;;;;;;6161304;28;87319;-65
2022/07/21 02:06:30;;;;;;;4.93;4.50;;;25.80;91.20;;;;;;6165962;28;88684;-65
2022/07/21 02:09:34;;;;;;;4.97;4.57;;;25.80;91.20;;;;;;6166048;28;90715;-65
2022/07/21 02:12:36;;;;;;;5.03;4.53;;;25.80;91.20;;;;;;6175317;28;89453;-65
2022/07/21 02:15:38;;;;;;;4.88;4.47;;;25.80;91.60;;;;;;6160923;28;89927;-65
2022/07/21 02:18:41;;;;;;;4.97;4.57;;;25.80;91.20;;;;;;6173040;28;89088;-64
2022/07/21 02:21:43;;;;;;;5.20;4.70;;;25.80;91.20;;;;;;6161164;28;89046;-65
2022/07/21 02:24:46;;;;;;;5.00;4.60;;;25.90;91.20;;;;;;6173437;28;89042;-64
2022/07/21 02:27:48;;;;;;;4.70;4.30;;;25.80;91.20;;;;;;6161886;28;89058;-65
2022/07/21 02:30:51;;;;;;;5.15;4.70;;;25.90;91.30;;;;;;6180654;28;89051;-65
2022/07/21 02:33:53;;;;;;;5.35;4.85;;;25.80;91.30;;;;;;6177600;28;89102;-65
2022/07/21 02:36:55;;;;;;;5.18;4.78;;;25.80;91.30;;;;;;6174876;28;88345;-64
2022/07/21 02:39:58;;;;;;;5.40;4.50;;;25.80;91.30;;;;;;6177052;28;88013;-65
2022/07/21 02:43:01;;;;;;;5.43;5.03;;;25.80;91.30;;;;;;6171316;28;89766;-65
2022/07/21 02:46:03;;;;;;;4.88;4.47;;;25.80;91.40;;;;;;6182685;28;90031;-65
2022/07/21 02:49:04;;;;;;;5.68;4.90;;;25.80;91.40;;;;;;6172074;28;89104;-65
2022/07/21 02:52:07;;;;;;;4.93;4.50;;;25.80;91.40;;;;;;6173140;28;89065;-65
2022/07/21 02:55:10;;;;;;;5.07;4.68;;;25.80;91.40;;;;;;6172319;28;89881;-65
2022/07/21 02:58:15;;;;;;;5.20;4.70;;;25.80;91.40;;;;;;6182966;28;89083;-65
2022/07/21 03:01:18;;;;;;;5.47;5.07;;;25.80;91.40;;;;;;6170032;28;89319;-65
2022/07/21 03:04:20;;;;;;;5.10;4.70;;;25.80;91.40;;;;;;6178380;28;89383;-65
2022/07/21 03:07:22;;;;;;;5.68;5.18;;;25.80;91.40;;;;;;6192158;28;88363;-65
2022/07/21 03:10:26;;;;;;;6.05;5.55;;;25.80;91.40;;;;;;6174667;28;89124;-65
2022/07/21 03:13:28;;;;;;;5.50;5.00;;;25.80;91.40;;;;;;6164872;28;89078;-64
2022/07/21 03:16:30;;;;;;;5.40;4.88;;;25.80;91.40;;;;;;6174091;28;90279;-66
2022/07/21 03:19:32;;;;;;;5.32;4.90;;;25.80;91.50;;;;;;6181834;28;88978;-65
2022/07/21 03:22:34;;;;;;;5.57;5.15;;;25.90;91.50;;;;;;6162691;28;87876;-64
2022/07/21 03:25:38;;;;;;;5.53;5.03;;;25.80;91.50;;;;;;6172169;28;88384;-65
2022/07/21 03:28:40;;;;;;;5.57;5.10;;;25.80;91.50;;;;;;6161143;28;89023;-64
2022/07/21 03:31:42;;;;;;;5.68;5.20;;;25.80;91.60;;;;;;6180735;28;89028;-64
2022/07/21 03:34:45;;;;;;;5.53;5.03;;;25.80;91.60;;;;;;6182086;28;89134;-65
2022/07/21 03:37:49;;;;;;;5.35;4.95;;;25.80;91.60;;;;;;6164879;28;88234;-64
2022/07/21 03:40:53;;;;;;;5.15;4.70;;;25.80;91.60;;;;;;6166213;28;89098;-65
2022/07/21 03:43:55;;;;;;;5.35;4.95;;;25.80;91.50;;;;;;6171831;28;89161;-64
2022/07/21 03:46:58;;;;;;;5.85;5.35;;;25.90;91.60;;;;;;6163310;28;89995;-64
2022/07/21 03:50:00;;;;;;;5.35;4.95;;;25.80;91.60;;;;;;6179580;28;89173;-64
2022/07/21 03:53:03;;;;;;;5.68;5.13;;;25.80;92.00;;;;;;6172384;28;89094;-65
2022/07/21 03:56:07;;;;;;;5.18;4.78;;;25.80;91.60;;;;;;6159394;28;88629;-65
2022/07/21 03:59:09;;;;;;;6.00;5.40;;;25.80;91.60;;;;;;6170410;28;89031;-65
2022/07/21 04:02:11;;;;;;;5.70;5.20;;;25.80;91.60;;;;;;6158825;28;89086;-64
2022/07/21 04:05:14;;;;;;;5.38;4.90;;;25.80;91.60;;;;;;6171439;28;89073;-64
2022/07/21 04:08:16;;;;;;;5.40;5.00;;;25.80;91.60;;;;;;6172197;28;88454;-64
2022/07/21 04:11:19;;;;;;;5.00;4.60;;;25.80;91.60;;;;;;6177932;28;87993;-65
2022/07/21 04:14:21;;;;;;;5.10;4.70;;;25.80;91.60;;;;;;6161532;28;89538;-65
2022/07/21 04:17:23;;;;;;;5.78;5.28;;;25.80;91.70;;;;;;6161201;28;90018;-65
2022/07/21 04:20:26;;;;;;;6.18;5.38;;;25.80;91.70;;;;;;6170758;28;89104;-65
2022/07/21 04:23:28;;;;;;;6.03;5.53;;;25.80;91.70;;;;;;6171301;28;89312;-65
2022/07/21 04:26:31;;;;;;;5.57;5.07;;;25.80;91.70;;;;;;6165552;28;89002;-65
2022/07/21 04:29:33;;;;;;;5.75;5.25;;;25.80;91.70;;;;;;6168110;28;89205;-64
2022/07/21 04:32:35;;;;;;;5.40;5.00;;;25.80;91.70;;;;;;6159727;28;89405;-65
2022/07/21 04:35:37;;;;;;;5.28;4.88;;;25.80;91.70;;;;;;6181148;28;88285;-65
2022/07/21 04:38:40;;;;;;;5.28;4.88;;;25.80;91.70;;;;;;6169525;28;87161;-65
2022/07/21 04:41:43;;;;;;;5.53;5.03;;;25.80;91.70;;;;;;6181907;28;89059;-65
2022/07/21 04:44:45;;;;;;;5.63;5.13;;;25.80;91.70;;;;;;6180788;28;89074;-65
2022/07/21 04:47:49;;;;;;;5.30;4.90;;;25.90;91.70;;;;;;6173239;28;89972;-65
2022/07/21 04:50:51;;;;;;;5.60;5.10;;;25.80;91.60;;;;;;6171509;28;89098;-65
2022/07/21 04:53:53;;;;;;;5.15;4.65;;;25.90;91.70;;;;;;6157780;28;89238;-65
2022/07/21 04:56:56;;;;;;;5.50;5.05;;;25.90;91.70;;;;;;6164444;28;89047;-65
2022/07/21 04:59:58;;;;;;;5.03;4.63;;;25.90;91.70;;;;;;6167882;28;89154;-64
2022/07/21 05:03:00;;;;;;;5.57;5.18;;;25.90;91.70;;;;;;6168101;28;89136;-65
2022/07/21 05:06:02;;;;;;;5.05;4.63;;;25.80;91.70;;;;;;6162172;28;89398;-65
2022/07/21 05:09:04;;;;;;;4.93;4.53;;;25.80;91.80;;;;;;6162920;28;88352;-65
2022/07/21 05:12:08;;;;;;;5.65;5.15;;;25.90;91.80;;;;;;6167644;28;89051;-64
2022/07/21 05:15:12;;;;;;;5.25;4.85;;;25.90;91.80;;;;;;6175191;28;88364;-64
2022/07/21 05:18:14;;;;;;;5.60;5.10;;;25.90;91.80;;;;;;6161757;28;90176;-64
2022/07/21 05:21:16;;;;;;;5.40;5.00;;;25.90;91.80;;;;;;6160594;28;87815;-65
2022/07/21 05:24:18;;;;;;;5.43;5.03;;;25.90;91.80;;;;;;6164505;28;89057;-65
2022/07/21 05:27:21;;;;;;;6.10;4.78;;;25.90;91.90;;;;;;6165402;28;87978;-65
2022/07/21 05:30:23;;;;;;;5.25;4.78;;;25.90;91.80;;;;;;6165255;28;89084;-65
2022/07/21 05:33:25;;;;;;;5.22;4.80;;;25.90;91.90;;;;;;6167411;28;89092;-65
2022/07/21 05:36:27;;;;;;;5.65;4.63;;;25.90;91.90;;;;;;6169561;28;91405;-65
2022/07/21 05:39:29;;;;;;;5.45;5.05;;;25.90;91.90;;;;;;6171439;28;88380;-65
2022/07/21 05:42:33;;;;;;;5.13;4.63;;;25.90;91.90;;;;;;6172909;28;89060;-65
2022/07/21 05:45:35;;;;;;;5.65;4.88;;;25.90;91.90;;;;;;6171486;28;89287;-64
2022/07/21 05:48:37;;;;;;;5.13;4.72;;;25.90;92.00;;;;;;6164895;28;90297;-65
2022/07/21 05:51:39;;;;;;;5.07;4.68;;;25.90;92.00;;;;;;6166630;28;89469;-65
2022/07/21 05:54:41;;;;;;;5.47;4.97;;;25.90;92.00;;;;;;6159077;28;89222;-64
2022/07/21 05:57:44;;;;;;;5.22;4.82;;;25.90;92.10;;;;;;6158415;28;89014;-65
2022/07/21 06:01:07;;;;;;;5.70;5.10;;;25.90;92.10;;;;;;6158756;28;89090;-65
2022/07/21 06:04:09;;;;;;;5.60;5.07;;;25.90;92.10;;;;;;6161418;28;89242;-65
2022/07/21 06:07:11;;;;;;;5.40;4.90;;;25.90;92.10;;;;;;6158358;28;89808;-65
2022/07/21 06:10:13;;;;;;;5.10;4.70;;;26.00;92.10;;;;;;6174755;28;88334;-65
2022/07/21 06:13:17;;;;;;;5.28;4.78;;;26.00;92.10;;;;;;6164527;28;89031;-65
2022/07/21 06:16:19;;;;;;;5.13;4.63;;;26.00;92.10;;;;;;6177324;28;88967;-64
2022/07/21 06:19:21;;;;;;;5.18;4.72;;;26.00;92.10;;;;;;6173305;28;89893;-65
2022/07/21 06:22:23;;;;;;;5.10;4.70;;;26.00;92.10;;;;;;6162415;28;89178;-65
2022/07/21 06:25:25;;;;;;;5.32;4.82;;;26.00;92.20;;;;;;6166883;28;89142;-65
2022/07/21 06:28:28;;;;;;;5.15;4.75;;;26.00;92.20;;;;;;6169409;28;89397;-65
2022/07/21 06:31:30;;;;;;;5.00;4.60;;;26.00;92.20;;;;;;6178855;28;89114;-65
2022/07/21 06:34:32;;;;;;;5.35;4.88;;;26.00;92.20;;;;;;6158809;28;89171;-65
2022/07/21 06:37:34;;;;;;;4.70;4.30;;;26.00;92.20;;;;;;6166796;28;87759;-65
2022/07/21 06:40:36;;;;;;;5.07;4.68;;;26.00;92.30;;;;;;6181953;28;88204;-65
2022/07/21 06:43:40;;;;;;;5.05;4.65;;;26.00;92.40;;;;;;6171216;28;89076;-65
2022/07/21 06:46:41;;;;;;;4.90;4.50;;;26.00;92.40;;;;;;6167905;28;89024;-65
2022/07/21 06:49:43;;;;;;;5.25;4.85;;;26.00;92.40;;;;;;6161902;28;90046;-65
2022/07/21 06:52:45;;;;;;;5.18;4.78;;;26.00;92.40;;;;;;6184879;28;89036;-65
2022/07/21 06:55:51;;;;;;;5.05;4.65;;;26.00;92.70;;;;;;6173358;28;91405;-65
2022/07/21 06:58:55;;;;;;;5.47;4.97;;;26.00;92.30;;;;;;6160795;28;90083;-65
2022/07/21 07:01:58;;;;;;;4.90;4.50;;;26.00;92.30;;;;;;6158546;28;88007;-65
2022/07/21 07:05:00;;;;;;;5.18;4.78;;;26.10;92.40;;;;;;6160471;28;88866;-65
2022/07/21 07:08:03;;;;;;;5.05;4.57;;;26.00;92.30;;;;;;6160482;28;89084;-65
2022/07/21 07:11:06;;;;;;;5.68;5.18;;;26.00;92.30;;;;;;6174445;28;88424;-65
2022/07/21 07:14:09;;;;;;;5.20;4.80;;;26.00;92.40;;;;;;6160608;28;89415;-65
2022/07/21 07:17:16;;;;;;;5.28;4.78;;;26.10;92.40;;;;;;6183479;28;89642;-64
2022/07/21 07:20:18;;;;;;;5.03;4.55;;;26.00;92.40;;;;;;6171480;28;90134;-65
2022/07/21 07:23:20;;;;;;;4.90;4.50;;;26.10;92.40;;;;;;6182253;28;89114;-64
2022/07/21 07:26:22;;;;;;;4.78;4.38;;;26.00;92.50;;;;;;6174334;28;89596;-65
2022/07/21 07:29:25;;;;;;;4.93;4.53;;;26.10;92.60;;;;;;6161187;28;89367;-64
2022/07/21 07:32:27;;;;;;;5.15;4.75;;;26.10;92.60;;;;;;6159032;28;89258;-65
2022/07/21 07:35:30;;;;;;;5.00;4.60;;;26.10;92.60;;;;;;6174758;28;89158;-65
2022/07/21 07:38:31;;;;;;;4.78;4.38;;;26.10;92.60;;;;;;6170822;28;89103;-65
2022/07/21 07:41:34;;;;;;;4.90;4.40;;;26.10;92.60;;;;;;6171299;28;88603;-65
2022/07/21 07:44:37;;;;;;;5.15;4.75;;;26.10;92.60;;;;;;6185602;28;89003;-64
2022/07/21 07:47:40;;;;;;;5.20;4.80;;;26.10;92.60;;;;;;6171347;28;87903;-65
2022/07/21 07:50:42;;;;;;;5.30;4.90;;;26.10;92.60;;;;;;6166050;28;90022;-65
2022/07/21 07:53:44;;;;;;;5.25;4.80;;;26.10;92.60;;;;;;6164209;28;89128;-65
2022/07/21 07:56:46;;;;;;;5.00;4.60;;;26.10;92.60;;;;;;6175072;28;89827;-65
2022/07/21 07:59:49;;;;;;;5.07;4.60;;;26.10;92.70;;;;;;6181308;28;89017;-65
2022/07/21 08:02:51;;;;;;;5.20;4.75;;;26.10;92.70;;;;;;6181417;28;89037;-65
2022/07/21 08:05:54;;;;;;;5.18;4.78;;;26.10;92.80;;;;;;6159041;28;89303;-65
2022/07/21 08:08:56;;;;;;;4.88;4.50;;;26.10;92.80;;;;;;6165754;28;87863;-65
2022/07/21 08:11:58;;;;;;;4.88;4.47;;;26.10;92.90;;;;;;6168805;28;88318;-65
2022/07/21 08:15:02;;;;;;;5.40;4.90;;;26.10;92.80;;;;;;6171997;28;88982;-65
2022/07/21 08:18:04;;;;;;;5.05;4.65;;;26.10;92.80;;;;;;6181895;28;89097;-65
2022/07/21 08:21:06;;;;;;;4.30;4.00;;;26.10;92.80;;;;;;6171363;28;88858;-65
2022/07/21 08:24:09;;;;;;;4.30;4.00;;;26.10;92.80;;;;;;6179281;28;89384;-65
2022/07/21 08:27:11;;;;;;;5.28;4.78;;;26.20;92.90;;;;;;6181209;28;89102;-65
2022/07/21 08:30:14;;;;;;;4.75;4.40;;;26.10;92.80;;;;;;6174294;28;89099;-65
2022/07/21 08:33:16;;;;;;;4.88;4.38;;;26.10;92.90;;;;;;6157693;28;89200;-65
2022/07/21 08:36:19;;;;;;;4.72;4.32;;;26.20;93.00;;;;;;6172354;28;89649;-65
2022/07/21 08:39:21;;;;;;;5.38;4.88;;;26.10;93.00;;;;;;6180488;28;89018;-65
2022/07/21 08:42:23;;;;;;;5.40;4.90;;;26.10;93.00;;;;;;6180398;28;87217;-65
2022/07/21 08:45:27;;;;;;;5.10;4.70;;;26.10;93.00;;;;;;6170325;28;89087;-65
2022/07/21 08:48:30;;;;;;;4.63;4.30;;;26.10;93.00;;;;;;6182963;28;89064;-65
2022/07/21 08:51:34;;;;;;;4.80;4.43;;;26.10;93.00;;;;;;6177208;28;90626;-65
2022/07/21 08:54:36;;;;;;;4.93;4.53;;;26.10;93.10;;;;;;6170432;28;89046;-65
2022/07/21 08:57:39;;;;;;;5.68;5.18;;;26.10;93.10;;;;;;6160358;28;88995;-65
2022/07/21 09:00:44;;;;;;;5.70;5.20;;;26.10;93.10;;;;;;6172394;28;88284;-65
2022/07/21 09:03:46;;;;;;;5.05;4.65;;;26.20;93.10;;;;;;6172094;28;89373;-65
2022/07/21 09:06:54;;;;;;;5.47;5.05;;;26.20;93.10;;;;;;6173561;28;89116;-65
2022/07/21 09:09:57;;;;;;;5.68;5.28;;;26.10;93.10;;;;;;6172518;28;89041;-65
2022/07/21 09:13:01;;;;;;;5.95;5.38;;;26.20;93.10;;;;;;6160950;28;88404;-65
2022/07/21 09:16:06;;;;;;;5.53;5.07;;;26.10;93.00;;;;;;6157155;28;87964;-65
2022/07/21 09:19:16;;;;;;;6.25;5.40;;;26.20;93.20;;;;;;6169687;28;89097;-65
2022/07/21 09:22:19;;;;;;;6.03;5.53;;;26.20;93.40;;;;;;6167251;28;90186;-65
2022/07/21 09:25:34;;;;;;;5.93;5.43;;;26.20;93.40;;;;;;6178850;28;89325;-65
2022/07/21 09:28:37;;;;;;;6.18;5.57;;;26.20;93.50;;;;;;6169120;28;87994;-65
2022/07/21 09:31:40;;;;;;;5.88;5.38;;;26.10;93.60;;;;;;6179417;28;89114;-65
2022/07/21 09:34:42;;;;;;;6.20;5.70;;;26.10;93.70;;;;;;6179336;28;88965;-65
2022/07/21 09:37:44;;;;;;;6.03;5.50;;;26.20;93.90;;;;;;6169843;28;89260;-65
2022/07/21 09:40:48;;;;;;;5.72;5.30;;;26.20;93.90;;;;;;6174220;28;87998;-65
2022/07/21 09:43:52;;;;;;;6.05;5.55;;;26.10;93.80;;;;;;6167334;28;88374;-65
2022/07/21 09:47:10;;;;;;;5.70;5.18;;;26.10;93.60;;;;;;6172905;28;89011;-65
2022/07/21 09:50:14;;;;;;;6.10;5.60;;;26.20;93.50;;;;;;6159985;28;89110;-65
2022/07/21 09:53:16;;;;;;;5.80;5.30;;;26.10;93.50;;;;;;6175543;28;90020;-65
2022/07/21 09:56:19;;;;;;;6.30;5.70;;;26.20;93.60;;;;;;6166291;28;89030;-65
2022/07/21 09:59:22;;;;;;;6.38;5.88;;;26.20;93.60;;;;;;6177677;28;89099;-65
2022/07/21 10:02:27;;;;;;;6.28;5.78;;;26.20;93.50;;;;;;6178824;28;89067;-65
2022/07/21 10:05:29;;;;;;;6.53;5.97;;;26.20;93.40;;;;;;6177695;28;89330;-65
2022/07/21 10:08:33;;;;;;;7.03;6.50;;;26.20;93.70;;;;;;6175133;28;89094;-65
2022/07/21 10:11:35;;;;;;;6.85;6.25;;;26.20;93.80;;;;;;6176843;28;89553;-65
2022/07/21 10:14:38;;;;;;;6.55;6.05;;;26.20;93.90;;;;;;6164527;28;88311;-65
2022/07/21 10:17:45;;;;;;;6.57;6.07;;;26.10;93.80;;;;;;6184103;28;89096;-65
2022/07/21 10:20:53;;;;;;;6.55;5.95;;;26.20;93.90;;;;;;6175849;28;89116;-65
2022/07/21 10:23:56;;;;;;;6.90;6.30;;;26.20;94.00;;;;;;6174658;28;90245;-66
2022/07/21 10:27:06;;;;;;;6.78;6.18;;;26.20;94.10;;;;;;6182916;28;89153;-65
2022/07/21 10:30:09;;;;;;;7.15;6.55;;;26.20;94.00;;;;;;6181991;28;89094;-65
2022/07/21 10:33:13;;;;;;;7.30;6.63;;;26.20;93.90;;;;;;6172382;28;89388;-65
2022/07/21 10:36:41;;;;;;;6.43;5.93;;;26.20;93.90;;;;;;6173775;28;89195;-65
2022/07/21 10:39:43;;;;;;;6.50;5.95;;;26.20;94.00;;;;;;6171025;28;89115;-65
2022/07/21 10:42:45;;;;;;;7.22;6.53;;;26.20;94.00;;;;;;6185102;28;89059;-65
2022/07/21 10:45:48;;;;;;;7.85;7.15;;;26.20;94.00;;;;;;6183138;28;88274;-65
2022/07/21 10:48:51;;;;;;;6.97;6.47;;;26.20;94.00;;;;;;6171746;28;89142;-65
2022/07/21 10:51:53;;;;;;;7.53;6.82;;;26.20;94.10;;;;;;6178540;28;89045;-66
2022/07/21 10:55:16;;;;;;;7.43;6.82;;;26.20;94.30;;;;;;6174982;28;90002;-65
2022/07/21 10:58:25;;;;;;;7.30;6.70;;;26.20;94.50;;;;;;6175581;28;88722;-65
2022/07/21 11:01:27;;;;;;;7.75;7.05;;;26.20;94.50;;;;;;6169665;28;89143;-65
2022/07/21 11:04:31;;;;;;;7.20;6.60;;;26.20;94.50;;;;;;6171281;28;89135;-65
2022/07/21 11:08:09;;;;;;;7.65;6.95;;;26.20;94.50;;;;;;6182457;28;89118;-65
2022/07/21 11:11:13;;;;;;;7.30;6.70;;;26.20;94.60;;;;;;6161081;28;89276;-65
2022/07/21 11:14:17;;;;;;;7.60;7.00;;;26.20;94.50;;;;;;6170770;28;89337;-65
2022/07/21 11:17:29;;;;;;;7.32;6.75;;;26.20;94.40;;;;;;6161432;28;88559;-65
2022/07/21 11:20:33;;;;;;;7.72;7.03;;;26.20;94.30;;;;;;6161795;28;89048;-65
2022/07/21 11:23:43;;;;;;;7.45;6.88;;;26.20;94.40;;;;;;6181239;28;89114;-65
2022/07/21 11:26:45;;;;;;;6.90;6.40;;;26.20;94.40;;;;;;6160180;28;89984;-65
2022/07/21 11:29:48;;;;;;;7.40;6.80;;;26.20;94.40;;;;;;6180693;28;90017;-65
2022/07/21 11:32:50;;;;;;;7.43;6.82;;;26.20;94.30;;;;;;6183149;28;89090;-65
2022/07/21 11:35:54;;;;;;;7.53;6.93;;;26.20;94.60;;;;;;6169897;28;89054;-65
2022/07/21 11:39:01;;;;;;;7.50;6.85;;;26.20;94.70;;;;;;6167913;28;88302;-65
2022/07/21 11:42:04;;;;;;;7.32;6.75;;;26.20;95.00;;;;;;6178362;28;89058;-65
2022/07/21 11:45:08;;;;;;;7.50;6.90;;;26.20;95.20;;;;;;6161533;28;89159;-66
2022/07/21 11:48:10;;;;;;;7.60;7.00;;;26.20;95.20;;;;;;6173475;28;88383;-66
2022/07/21 11:51:13;;;;;;;8.07;7.38;;;26.20;95.30;;;;;;6163799;28;89097;-65
2022/07/21 11:54:28;;;;;;;6.97;6.47;;;26.30;95.40;;;;;;6169717;28;88983;-65
2022/07/21 11:57:30;;;;;;;7.22;6.63;;;26.20;95.50;;;;;;6161565;28;90004;-65
2022/07/21 12:00:32;;;;;;;7.30;6.70;;;26.20;95.30;;;;;;6170228;28;90201;-65
2022/07/21 12:03:34;;;;;;;7.35;6.75;;;26.20;95.10;;;;;;6163263;28;89070;-65
2022/07/21 12:06:38;;;;;;;7.30;6.70;;;26.20;95.10;;;;;;6166242;28;89118;-65
2022/07/21 12:09:42;;;;;;;6.85;6.35;;;26.20;95.00;;;;;;6168404;28;87912;-65
2022/07/21 12:12:47;;;;;;;7.20;6.70;;;26.20;95.10;;;;;;6178362;28;89113;-65
2022/07/21 12:15:49;;;;;;;6.93;6.43;;;26.30;95.10;;;;;;6182550;28;89312;-65
2022/07/21 12:19:09;;;;;;;7.57;6.97;;;26.30;94.90;;;;;;6182258;28;88669;-66
2022/07/21 12:22:13;;;;;;;7.88;7.28;;;26.30;94.90;;;;;;6180952;28;90549;-65
2022/07/21 12:25:17;;;;;;;8.20;7.50;;;26.30;95.20;;;;;;6182048;28;89197;-66
2022/07/21 12:28:19;;;;;;;7.40;6.80;;;26.30;95.40;;;;;;6170108;28;89000;-65
2022/07/21 12:31:23;;;;;;;7.72;7.10;;;26.30;95.50;;;;;;6168895;28;89189;-65
2022/07/21 12:34:26;;;;;;;7.82;7.00;;;26.30;95.50;;;;;;6180809;28;88066;-65
2022/07/21 12:37:53;;;;;;;7.72;7.03;;;26.20;95.70;;;;;;6181092;28;89371;-65
2022/07/21 12:40:58;;;;;;;7.57;6.97;;;26.20;95.70;;;;;;6179927;28;87978;-66
2022/07/21 12:44:01;;;;;;;7.53;6.93;;;26.20;95.60;;;;;;6174048;28;88388;-65
2022/07/21 12:47:17;;;;;;;7.28;6.68;;;26.20;95.40;;;;;;6176776;28;87947;-66
2022/07/21 12:50:19;;;;;;;6.97;6.47;;;26.30;95.30;;;;;;6174312;28;88411;-66
2022/07/21 12:53:22;;;;;;;7.47;6.78;;;26.30;95.30;;;;;;6158725;28;89101;-65
2022/07/21 12:56:26;;;;;;;7.60;7.00;;;26.30;95.30;;;;;;6172959;28;89236;-65
2022/07/21 12:59:28;;;;;;;7.90;7.20;;;26.30;95.40;;;;;;6165141;28;90079;-66
2022/07/21 13:02:30;;;;;;;7.60;7.00;;;26.30;95.30;;;;;;6170594;28;89493;-65
2022/07/21 13:05:32;;;;;;;7.75;7.15;;;26.30;95.20;;;;;;6159223;28;89170;-66
2022/07/21 13:08:36;;;;;;;7.60;7.00;;;26.30;95.20;;;;;;6165473;28;89226;-65
2022/07/21 13:11:38;;;;;;;7.65;7.05;;;26.30;95.50;;;;;;6156936;28;89407;-66
2022/07/21 13:14:40;;;;;;;7.40;6.80;;;26.30;95.70;;;;;;6182661;28;88991;-66
2022/07/21 13:17:43;;;;;;;7.28;6.60;;;26.30;95.60;;;;;;6167088;28;89181;-66
2022/07/21 13:20:45;;;;;;;7.90;7.20;;;26.30;95.70;;;;;;6164179;28;88222;-66
2022/07/21 13:23:48;;;;;;;7.70;7.00;;;26.30;95.90;;;;;;6170007;28;89061;-65
2022/07/21 13:26:50;;;;;;;7.90;7.28;;;26.30;96.00;;;;;;6169671;28;89082;-66
2022/07/21 13:29:52;;;;;;;7.55;6.95;;;26.30;96.00;;;;;;6169204;28;89936;-66
2022/07/21 13:32:54;;;;;;;7.03;6.53;;;26.30;95.90;;;;;;6179029;28;89454;-65
2022/07/21 13:35:56;;;;;;;7.07;6.57;;;26.30;95.80;;;;;;6179870;28;89066;-65
2022/07/21 13:38:59;;;;;;;7.03;6.47;;;26.30;95.80;;;;;;6179431;28;88260;-66
2022/07/21 13:42:01;;;;;;;7.50;6.93;;;26.30;95.90;;;;;;6178624;28;89255;-66
2022/07/21 13:45:05;;;;;;;7.35;6.75;;;26.30;95.90;;;;;;6178624;28;89589;-66
2022/07/21 13:48:07;;;;;;;7.45;6.85;;;26.30;95.80;;;;;;6167803;28;88012;-65
2022/07/21 13:51:09;;;;;;;7.32;6.72;;;26.30;95.60;;;;;;6166889;28;88372;-65
2022/07/21 13:54:13;;;;;;;7.97;7.18;;;26.30;95.50;;;;;;6158371;28;89253;-66
2022/07/21 13:57:15;;;;;;;7.72;7.13;;;26.30;95.70;;;;;;6178591;28;89467;-66
2022/07/21 14:00:17;;;;;;;7.43;6.82;;;26.30;95.90;;;;;;6178895;28;89959;-66
2022/07/21 14:03:19;;;;;;;7.45;6.80;;;26.30;95.90;;;;;;6180432;28;89188;-65
2022/07/21 14:06:21;;;;;;;7.70;7.10;;;26.30;96.00;;;;;;6166433;28;89051;-65
2022/07/21 14:09:25;;;;;;;7.43;6.82;;;26.30;96.20;;;;;;6172033;28;88943;-66
2022/07/21 14:12:27;;;;;;;7.30;6.70;;;26.30;96.20;;;;;;6162725;28;89001;-66
2022/07/21 14:15:29;;;;;;;7.40;6.80;;;26.30;96.20;;;;;;6155534;28;87988;-65
2022/07/21 14:18:31;;;;;;;7.45;6.85;;;26.30;96.00;;;;;;6176836;28;89141;-65
2022/07/21 14:21:33;;;;;;;7.60;7.00;;;26.30;96.10;;;;;;6174726;28;88587;-65
2022/07/21 14:27:58;;;;;;;7.32;6.72;;;26.30;96.10;;;;;;6169545;28;87883;-65
2022/07/21 14:31:00;;;;;;;7.40;6.80;;;26.40;96.20;;;;;;6156531;28;91317;-66
2022/07/21 14:34:02;;;;;;;7.32;6.78;;;26.40;96.20;;;;;;6156531;28;89179;-66
2022/07/21 14:37:04;;;;;;;7.20;6.60;;;26.40;96.00;;;;;;6156440;28;89300;-65
2022/07/21 14:40:09;;;;;;;7.20;6.60;;;26.40;95.80;;;;;;6164690;28;89241;-65
2022/07/21 14:43:11;;;;;;;7.25;6.65;;;26.30;95.70;;;;;;6167186;28;89153;-65
2022/07/21 14:46:13;;;;;;;7.40;6.80;;;26.40;96.00;;;;;;6192181;28;87940;-65
2022/07/21 14:49:15;;;;;;;6.82;6.30;;;26.40;96.10;;;;;;6160209;28;89311;-65
2022/07/21 14:52:17;;;;;;;7.38;6.78;;;26.40;96.10;;;;;;6170527;28;88455;-65
2022/07/21 14:55:22;;;;;;;7.63;7.00;;;26.30;96.00;;;;;;6157005;28;89051;-66
2022/07/21 14:58:24;;;;;;;7.10;6.50;;;26.40;96.00;;;;;;6161066;28;89024;-66
2022/07/21 15:01:26;;;;;;;7.88;7.18;;;26.30;96.20;;;;;;6172127;28;90081;-65
2022/07/21 15:04:28;;;;;;;7.03;6.43;;;26.40;96.20;;;;;;6173632;28;91208;-65
2022/07/21 15:07:30;;;;;;;7.78;7.07;;;26.40;96.20;;;;;;6171444;28;89543;-65
2022/07/21 15:10:33;;;;;;;6.90;6.40;;;26.30;96.30;;;;;;6173406;28;89024;-66
2022/07/21 15:13:35;;;;;;;7.10;6.57;;;26.40;96.40;;;;;;6160477;28;88986;-65
2022/07/21 15:16:37;;;;;;;7.20;6.70;;;26.40;96.40;;;;;;6158659;28;89029;-65
2022/07/21 15:19:39;;;;;;;7.30;6.70;;;26.40;96.40;;;;;;6166618;28;89280;-65
2022/07/21 15:22:41;;;;;;;7.32;6.72;;;26.40;96.30;;;;;;6169747;28;88338;-65
2022/07/21 15:25:45;;;;;;;7.28;6.68;;;26.40;96.20;;;;;;6183432;28;89105;-66
2022/07/21 15:28:47;;;;;;;7.40;6.80;;;26.40;96.00;;;;;;6195211;28;88258;-65
2022/07/21 15:31:49;;;;;;;7.18;6.57;;;26.30;95.90;;;;;;6170886;28;90134;-65
2022/07/21 15:34:51;;;;;;;6.85;6.32;;;26.30;95.80;;;;;;6171623;28;89132;-65
2022/07/21 15:37:53;;;;;;;7.30;6.70;;;26.40;95.80;;;;;;6160032;28;89018;-65
2022/07/21 15:40:56;;;;;;;7.57;6.97;;;26.40;95.70;;;;;;6173468;28;89071;-65
2022/07/21 15:43:58;;;;;;;7.30;6.70;;;26.40;95.80;;;;;;6171657;28;88306;-65
2022/07/21 15:47:00;;;;;;;7.05;6.55;;;26.40;95.80;;;;;;6160738;28;88475;-65
2022/07/21 15:50:02;;;;;;;7.90;7.30;;;26.40;95.90;;;;;;6185033;28;87861;-65
2022/07/21 15:53:06;;;;;;;7.47;6.88;;;26.40;96.10;;;;;;6159504;28;87640;-65
2022/07/21 15:56:09;;;;;;;7.63;7.10;;;26.40;96.20;;;;;;6170395;28;89136;-65
2022/07/21 16:02:31;;;;;;;7.20;6.60;;;26.40;96.00;;;;;;6169086;28;88314;-65
2022/07/21 16:05:33;;;;;;;7.60;7.00;;;26.40;96.00;;;;;;6167833;28;89090;-65